aviador You're here:

LFGJ Decoded Metar

DOLE in FRANCE
Report Time2018-06-17 23:00:00
UTC Time2018-06-17 23:32:40
Flight Rules vfr VFR
WindVRB at 02 kt
Visibility9999 m
Phenomena:N/A
Clouds:N/A
Expected CloudBase > 400 ft AGL from Temp-Dew spread
CeilingNone
Temp13°C (ISA -1)
Dew Point12°C (94% RH)
AAT12.9°C
QNH1022 hPa
Density Alt443 ft
Elevation643 ft
Report Wrong Elevation
Raw Report
METAR LFGJ 172300Z AUTO VRB02KT CAVOK 13/12 Q1022=

Extra information for LFGJ:More info

Metar Taf Metar & Taf Last 4 Metars F.Rules Stats Wind Profile Meteogram Temp Stats Airport Information Weather charts Add Link Nearby VenuesMetar ALERT Operation Metar Decoded Social comments